Time;durP1;ratioP1;P1;durP2;ratioP2;P2;SDS_P1;SDS_P2;PMS_P1;PMS_P2;Temp;Humidity;BMP_temperature;BMP_pressure;BME280_temperature;BME280_humidity;BME280_pressure;Samples;Min_cycle;Max_cycle;Signal;HPM_P1;HPM_P2
2024/01/11 00:01:02;;;;;;;34.17;15.75;;;;;;;-3.42;100.00;102672.97;5037111;28;21265;-80
2024/01/11 00:03:30;;;;;;;32.17;15.30;;;;;;;-3.42;100.00;102664.97;5038846;28;20845;-81
2024/01/11 00:06:05;;;;;;;31.55;14.52;;;;;;;-3.46;100.00;102655.59;5038671;28;20433;-80
2024/01/11 00:08:38;;;;;;;34.13;15.60;;;;;;;-3.46;100.00;102656.41;5057288;28;20423;-80
2024/01/11 00:11:11;;;;;;;34.63;15.90;;;;;;;-3.40;100.00;102668.34;5045662;28;20430;-80
2024/01/11 00:13:44;;;;;;;33.10;15.43;;;;;;;-3.41;100.00;102669.34;5039786;28;20430;-80
2024/01/11 00:16:12;;;;;;;33.55;15.50;;;;;;;-3.40;100.00;102667.50;5058420;28;20430;-80
2024/01/11 00:18:41;;;;;;;32.88;15.00;;;;;;;-3.38;100.00;102652.22;5040697;28;20892;-80
2024/01/11 00:21:15;;;;;;;32.72;14.55;;;;;;;-3.38;100.00;102657.53;5040901;28;20431;-81
2024/01/11 00:23:49;;;;;;;36.80;16.48;;;;;;;-3.48;100.00;102668.19;5057528;28;20439;-80
2024/01/11 00:26:17;;;;;;;35.88;15.70;;;;;;;-3.43;100.00;102647.31;5044732;28;20443;-80
2024/01/11 00:28:50;;;;;;;38.25;16.23;;;;;;;-3.34;100.00;102665.13;5042702;28;20435;-80
2024/01/11 00:31:23;;;;;;;35.42;16.23;;;;;;;-3.44;100.00;102653.63;5058569;28;20418;-80
2024/01/11 00:33:57;;;;;;;35.20;16.10;;;;;;;-3.46;100.00;102655.59;5054953;28;20428;-80
2024/01/11 00:36:32;;;;;;;37.58;16.95;;;;;;;-3.47;100.00;102651.25;5038232;28;21056;-80
2024/01/11 00:39:06;;;;;;;38.40;17.05;;;;;;;-3.49;100.00;102658.53;5039314;28;20440;-80
2024/01/11 00:41:34;;;;;;;39.40;16.85;;;;;;;-3.41;100.00;102648.03;5056706;28;20423;-80
2024/01/11 00:44:07;;;;;;;37.70;16.25;;;;;;;-3.50;100.00;102632.88;5040555;28;20429;-80
2024/01/11 00:46:41;;;;;;;41.25;17.15;;;;;;;-3.48;100.00;102620.25;5042005;28;21214;-80
2024/01/11 00:49:10;;;;;;;35.83;15.50;;;;;;;-3.46;100.00;102613.00;5043496;28;20436;-80
2024/01/11 00:51:44;;;;;;;37.17;16.95;;;;;;;-3.45;100.00;102601.38;5041743;28;21129;-80
2024/01/11 00:54:13;;;;;;;42.00;17.15;;;;;;;-3.48;100.00;102594.50;5067574;28;20431;-80
2024/01/11 00:56:41;;;;;;;36.47;16.27;;;;;;;-3.37;100.00;102596.19;5046420;28;20448;-80
2024/01/11 00:59:14;;;;;;;44.75;16.20;;;;;;;-3.47;100.00;102612.13;5060646;28;20431;-80
2024/01/11 01:01:48;;;;;;;38.55;15.85;;;;;;;-3.47;100.00;102606.81;5041502;28;20429;-80
2024/01/11 01:04:22;;;;;;;39.58;15.98;;;;;;;-3.56;100.00;102614.78;5043239;28;20415;-80
2024/01/11 01:06:51;;;;;;;44.92;16.52;;;;;;;-3.50;100.00;102616.91;5055234;28;20438;-80
2024/01/11 01:09:19;;;;;;;40.42;16.88;;;;;;;-3.52;100.00;102616.19;5038634;28;20887;-80
2024/01/11 01:11:48;;;;;;;40.58;15.98;;;;;;;-3.46;100.00;102607.69;5040347;28;20423;-80
2024/01/11 01:14:21;;;;;;;42.22;17.58;;;;;;;-3.55;100.00;102604.00;5036945;28;20436;-80
2024/01/11 01:16:49;;;;;;;41.90;17.67;;;;;;;-3.45;100.00;102599.53;5039187;28;20788;-80
2024/01/11 01:19:22;;;;;;;39.40;16.45;;;;;;;-3.48;100.00;102615.81;5043254;28;20431;-80
2024/01/11 01:21:52;;;;;;;43.15;16.80;;;;;;;-3.57;100.00;102629.09;5056704;28;20431;-80
2024/01/11 01:24:20;;;;;;;40.83;16.95;;;;;;;-3.57;100.00;102611.31;5055847;28;20431;-80
2024/01/11 01:26:53;;;;;;;37.47;16.33;;;;;;;-3.51;100.00;102596.59;5054929;28;20430;-80
2024/01/11 01:29:26;;;;;;;39.00;16.15;;;;;;;-3.60;100.00;102606.25;5042155;28;21168;-81
2024/01/11 01:31:59;;;;;;;36.17;15.40;;;;;;;-3.60;100.00;102603.59;5041831;28;20552;-80
2024/01/11 01:34:32;;;;;;;36.10;15.38;;;;;;;-3.66;100.00;102597.00;5055703;28;20416;-80
2024/01/11 01:37:02;;;;;;;39.92;16.67;;;;;;;-3.58;100.00;102604.28;5055118;28;20424;-80
2024/01/11 01:39:30;;;;;;;34.50;14.95;;;;;;;-3.59;100.00;102591.94;5059916;28;20439;-80
2024/01/11 01:42:04;;;;;;;38.97;16.05;;;;;;;-3.57;100.00;102595.34;5054991;28;20489;-80
2024/01/11 01:44:32;;;;;;;41.40;16.92;;;;;;;-3.54;100.00;102612.84;5056759;28;20423;-80
2024/01/11 01:47:05;;;;;;;37.25;15.85;;;;;;;-3.56;100.00;102631.63;5058204;28;20424;-80
2024/01/11 01:49:34;;;;;;;40.00;16.73;;;;;;;-3.45;100.00;102642.13;5038889;28;20430;-80
2024/01/11 01:52:09;;;;;;;39.90;16.23;;;;;;;-3.38;100.00;102630.91;5056628;28;20417;-79
2024/01/11 01:54:42;;;;;;;36.40;16.53;;;;;;;-3.48;100.00;102637.09;5040994;28;20438;-80
2024/01/11 01:57:19;;;;;;;34.63;15.18;;;;;;;-3.37;100.00;102649.44;5058114;28;20434;-80
2024/01/11 01:59:53;;;;;;;37.17;15.35;;;;;;;-3.38;100.00;102649.56;5056673;28;20454;-80
2024/01/11 02:02:28;;;;;;;38.05;16.10;;;;;;;-3.42;100.00;102649.00;5037663;28;20429;-80
2024/01/11 02:05:02;;;;;;;31.85;14.23;;;;;;;-3.53;100.00;102646.47;5054969;28;20998;-80
2024/01/11 02:07:37;;;;;;;31.80;14.38;;;;;;;-3.51;100.00;102663.97;5037875;28;20443;-80
2024/01/11 02:10:10;;;;;;;35.40;14.88;;;;;;;-3.53;100.00;102644.66;5055905;28;20428;-80
2024/01/11 02:12:44;;;;;;;34.70;15.27;;;;;;;-3.53;100.00;102641.16;5056104;28;20423;-80
2024/01/11 02:15:12;;;;;;;35.03;16.00;;;;;;;-3.45;100.00;102650.13;5056506;28;20424;-80
2024/01/11 02:17:41;;;;;;;36.55;15.30;;;;;;;-3.46;100.00;102660.91;5054959;28;20490;-80
2024/01/11 02:20:11;;;;;;;34.33;15.10;;;;;;;-3.57;100.00;102672.50;5054440;28;20415;-80
2024/01/11 02:22:48;;;;;;;36.50;16.20;;;;;;;-3.60;100.00;102684.28;5036480;28;20433;-80
2024/01/11 02:25:22;;;;;;;40.00;17.60;;;;;;;-3.56;100.00;102660.03;5054819;28;20440;-80
2024/01/11 02:27:51;;;;;;;40.20;17.35;;;;;;;-3.41;100.00;102672.00;5058708;28;20428;-80
2024/01/11 02:30:24;;;;;;;39.22;16.83;;;;;;;-3.32;100.00;102660.50;5046792;28;20423;-80
2024/01/11 02:32:52;;;;;;;40.13;17.90;;;;;;;-3.48;100.00;102657.53;5044027;28;20865;-80
2024/01/11 02:35:27;;;;;;;43.03;18.73;;;;;;;-3.40;100.00;102657.69;5061889;28;20440;-80
2024/01/11 02:38:01;;;;;;;43.33;18.33;;;;;;;-3.48;100.00;102654.88;5059110;28;20431;-80
2024/01/11 02:40:38;;;;;;;39.45;17.45;;;;;;;-3.50;100.00;102667.50;5059457;28;20426;-80
2024/01/11 02:43:11;;;;;;;44.38;19.38;;;;;;;-3.51;100.00;102671.13;5041713;28;20458;-80
2024/01/11 02:45:44;;;;;;;45.83;18.25;;;;;;;-3.53;100.00;102657.97;5059450;28;20781;-80
2024/01/11 02:48:12;;;;;;;41.50;18.25;;;;;;;-3.60;100.00;102655.00;5044527;28;20436;-80
2024/01/11 02:50:41;;;;;;;44.33;19.20;;;;;;;-3.49;100.00;102651.38;5059784;28;20974;-80
2024/01/11 02:53:14;;;;;;;47.70;19.73;;;;;;;-3.61;100.00;102655.97;5042122;28;20422;-80
2024/01/11 02:55:48;;;;;;;47.65;20.45;;;;;;;-3.54;100.00;102650.94;5059195;28;20417;-80
2024/01/11 02:58:17;;;;;;;48.50;19.65;;;;;;;-3.49;100.00;102632.75;5055800;28;20435;-80
2024/01/11 03:00:50;;;;;;;47.35;19.83;;;;;;;-3.61;100.00;102632.00;5042418;28;20419;-80
2024/01/11 03:03:18;;;;;;;42.40;18.27;;;;;;;-3.59;100.00;102640.72;5056288;28;20412;-80
2024/01/11 03:05:52;;;;;;;43.08;19.38;;;;;;;-3.61;100.00;102631.19;5058153;28;20442;-80
2024/01/11 03:08:21;;;;;;;40.67;17.92;;;;;;;-3.65;100.00;102643.09;5043540;28;20438;-80
2024/01/11 03:10:55;;;;;;;43.67;18.48;;;;;;;-3.62;100.00;102645.47;5059356;28;21934;-80
2024/01/11 03:13:24;;;;;;;44.67;18.40;;;;;;;-3.54;100.00;102653.59;5058160;28;20926;-80
2024/01/11 03:15:57;;;;;;;43.73;18.50;;;;;;;-3.60;100.00;102639.03;5060312;28;21107;-80
2024/01/11 03:18:25;;;;;;;42.80;17.85;;;;;;;-3.65;100.00;102637.75;5058465;28;20426;-80
2024/01/11 03:20:53;;;;;;;43.00;18.38;;;;;;;-3.64;100.00;102637.63;5058495;28;21090;-80
2024/01/11 03:23:26;;;;;;;43.30;18.30;;;;;;;-3.65;100.00;102632.44;5058408;28;20418;-81
2024/01/11 03:25:56;;;;;;;41.40;17.02;;;;;;;-3.54;100.00;102634.97;5055141;28;20448;-80
2024/01/11 03:28:29;;;;;;;41.20;17.38;;;;;;;-3.69;100.00;102634.53;5058291;28;20435;-80
2024/01/11 03:30:57;;;;;;;39.30;16.80;;;;;;;-3.61;100.00;102633.84;5057189;28;20415;-80
2024/01/11 03:33:26;;;;;;;39.78;16.38;;;;;;;-3.65;100.00;102630.59;5041767;28;20776;-80
2024/01/11 03:35:59;;;;;;;40.63;16.23;;;;;;;-3.66;100.00;102646.72;5058747;28;20420;-80
2024/01/11 03:38:32;;;;;;;39.05;16.73;;;;;;;-3.64;100.00;102660.75;5059897;28;20427;-80
2024/01/11 03:41:10;;;;;;;38.97;16.65;;;;;;;-3.65;100.00;102659.88;5042864;28;20939;-80
2024/01/11 03:43:39;;;;;;;37.85;16.15;;;;;;;-3.68;100.00;102662.00;5043733;28;20439;-80
2024/01/11 03:46:12;;;;;;;39.53;16.00;;;;;;;-3.66;100.00;102660.03;5044964;28;20430;-80
2024/01/11 03:48:40;;;;;;;35.07;15.00;;;;;;;-3.63;100.00;102647.28;5041995;28;20433;-80
2024/01/11 03:51:08;;;;;;;37.28;15.40;;;;;;;-3.73;100.00;102640.25;5060367;28;20417;-80
2024/01/11 03:53:37;;;;;;;34.85;15.35;;;;;;;-3.66;100.00;102628.09;5042472;28;20423;-80
2024/01/11 03:56:06;;;;;;;35.03;14.70;;;;;;;-3.61;100.00;102624.03;5062243;28;20417;-80
2024/01/11 03:58:41;;;;;;;34.10;14.95;;;;;;;-3.64;100.00;102619.00;5059590;28;20444;-80
2024/01/11 04:01:15;;;;;;;35.13;14.85;;;;;;;-3.72;100.00;102605.53;5057062;28;20977;-80
2024/01/11 04:03:43;;;;;;;36.20;14.88;;;;;;;-3.57;100.00;102586.53;5039561;28;20432;-80
2024/01/11 04:06:22;;;;;;;35.33;15.23;;;;;;;-3.62;100.00;102581.59;5057111;28;20427;-80
2024/01/11 04:08:56;;;;;;;35.05;14.48;;;;;;;-3.64;100.00;102589.72;5037557;28;20427;-80
2024/01/11 04:11:30;;;;;;;34.40;15.35;;;;;;;-3.69;100.00;102599.94;5056659;28;20791;-80
2024/01/11 04:13:59;;;;;;;35.13;15.15;;;;;;;-3.47;100.00;102603.31;5040942;28;20905;-80
2024/01/11 04:16:27;;;;;;;37.63;15.82;;;;;;;-3.58;100.00;102598.97;5042223;28;20433;-80
2024/01/11 04:19:02;;;;;;;35.27;15.33;;;;;;;-3.61;100.00;102605.41;5045382;28;20435;-80
2024/01/11 04:21:38;;;;;;;36.05;15.82;;;;;;;-3.65;100.00;102598.69;5058588;28;20419;-80
2024/01/11 04:24:07;;;;;;;38.92;15.73;;;;;;;-3.56;100.00;102585.50;5041069;28;20424;-80
2024/01/11 04:26:40;;;;;;;38.58;16.50;;;;;;;-3.62;100.00;102563.81;5040535;28;20429;-80
2024/01/11 04:29:15;;;;;;;36.22;16.40;;;;;;;-3.65;100.00;102566.75;5056221;28;20446;-80
2024/01/11 04:31:48;;;;;;;37.90;16.17;;;;;;;-3.69;100.00;102577.81;5041967;28;20440;-80
2024/01/11 04:34:16;;;;;;;36.95;16.02;;;;;;;-3.60;100.00;102593.78;5058612;28;20423;-80
2024/01/11 04:36:45;;;;;;;34.53;16.00;;;;;;;-3.72;100.00;102591.41;5057363;28;20423;-80
2024/01/11 04:39:13;;;;;;;36.97;16.27;;;;;;;-3.69;100.00;102585.78;5041445;28;20427;-80
2024/01/11 04:41:46;;;;;;;36.13;16.08;;;;;;;-3.66;100.00;102582.84;5059051;28;21197;-80
2024/01/11 04:44:16;;;;;;;37.30;15.03;;;;;;;-3.72;100.00;102578.94;5068533;28;20434;-80
2024/01/11 04:46:44;;;;;;;33.13;14.90;;;;;;;-3.59;100.00;102570.66;5053267;28;20794;-80
2024/01/11 04:49:17;;;;;;;33.90;14.95;;;;;;;-3.61;100.00;102564.66;5038590;28;20427;-80
2024/01/11 04:51:45;;;;;;;32.00;15.13;;;;;;;-3.60;100.00;102567.16;5054696;28;20434;-79
2024/01/11 04:54:14;;;;;;;38.08;16.35;;;;;;;-3.61;100.00;102554.84;5040960;28;20445;-80
2024/01/11 04:56:42;;;;;;;35.63;15.80;;;;;;;-3.68;100.00;102556.38;5069745;28;20435;-80
2024/01/11 04:59:10;;;;;;;36.15;16.33;;;;;;;-3.66;100.00;102557.09;5041045;28;20438;-80
2024/01/11 05:01:40;;;;;;;33.53;14.88;;;;;;;-3.62;100.00;102547.00;5056767;28;20427;-80
2024/01/11 05:04:14;;;;;;;36.15;16.08;;;;;;;-3.57;100.00;102551.91;5037543;28;20424;-81
2024/01/11 05:06:42;;;;;;;33.80;15.38;;;;;;;-3.72;100.00;102551.50;5055936;28;20802;-80
2024/01/11 05:09:15;;;;;;;35.35;15.82;;;;;;;-3.71;100.00;102545.19;5035848;28;20432;-81
2024/01/11 05:11:48;;;;;;;33.53;15.05;;;;;;;-3.71;100.00;102563.81;5057236;28;20434;-80
2024/01/11 05:14:22;;;;;;;34.05;15.32;;;;;;;-3.63;100.00;102574.63;5055719;28;20426;-80
2024/01/11 05:16:51;;;;;;;32.80;15.38;;;;;;;-3.61;100.00;102592.09;5057109;28;20420;-80
2024/01/11 05:19:24;;;;;;;33.90;15.43;;;;;;;-3.58;100.00;102598.97;5039118;28;20496;-80
2024/01/11 05:21:58;;;;;;;37.47;16.20;;;;;;;-3.74;100.00;102609.31;5057131;28;20422;-80
2024/01/11 05:24:31;;;;;;;37.50;15.77;;;;;;;-3.72;100.00;102599.38;5040764;28;20425;-80
2024/01/11 05:27:04;;;;;;;37.65;15.95;;;;;;;-3.78;100.00;102596.28;5039811;28;20431;-79
2024/01/11 05:29:33;;;;;;;37.58;16.27;;;;;;;-3.70;100.00;102602.72;5039858;28;20443;-80
2024/01/11 05:32:02;;;;;;;35.72;15.38;;;;;;;-3.85;100.00;102596.97;5057204;28;20411;-80
2024/01/11 05:34:31;;;;;;;39.53;15.85;;;;;;;-3.74;100.00;102593.34;5039876;28;20745;-80
2024/01/11 05:36:59;;;;;;;43.40;16.00;;;;;;;-3.74;100.00;102588.03;5056676;28;20510;-79
2024/01/11 05:39:27;;;;;;;40.30;15.75;;;;;;;-3.80;100.00;102584.97;5055710;28;20431;-80
2024/01/11 05:42:00;;;;;;;39.00;15.57;;;;;;;-3.70;100.00;102566.34;5055662;28;20432;-79
2024/01/11 05:44:28;;;;;;;40.67;15.95;;;;;;;-3.79;100.00;102572.47;5056844;28;20425;-80
2024/01/11 05:47:03;;;;;;;43.13;15.87;;;;;;;-3.70;100.00;102552.19;5044409;28;20432;-80
2024/01/11 05:49:37;;;;;;;43.50;16.92;;;;;;;-3.71;100.00;102546.03;5057139;28;20417;-80
2024/01/11 05:52:10;;;;;;;45.13;17.83;;;;;;;-3.71;100.00;102543.38;5042698;28;20930;-80
2024/01/11 05:54:43;;;;;;;39.17;15.93;;;;;;;-3.70;100.00;102554.84;5054613;28;20424;-80
2024/01/11 05:57:11;;;;;;;42.17;16.45;;;;;;;-3.73;100.00;102561.28;5056192;28;20427;-80
2024/01/11 05:59:44;;;;;;;38.90;14.68;;;;;;;-3.77;100.00;102555.41;5041332;28;20435;-80
2024/01/11 06:02:14;;;;;;;38.53;14.98;;;;;;;-3.77;100.00;102554.53;5052665;28;20431;-80
2024/01/11 06:04:47;;;;;;;40.60;14.67;;;;;;;-3.77;100.00;102559.88;5038933;28;20432;-80
2024/01/11 06:07:15;;;;;;;44.88;16.08;;;;;;;-3.76;100.00;102572.19;5055155;28;20432;-80
2024/01/11 06:09:48;;;;;;;43.25;15.55;;;;;;;-3.77;100.00;102568.72;5042355;28;20947;-80
2024/01/11 06:12:22;;;;;;;40.92;15.35;;;;;;;-3.75;100.00;102560.59;5034485;28;21467;-80
2024/01/11 06:14:50;;;;;;;40.00;15.95;;;;;;;-3.74;100.00;102556.94;5037410;28;20442;-80
2024/01/11 06:17:27;;;;;;;44.88;17.25;;;;;;;-3.68;100.00;102564.38;5055310;28;20428;-81
2024/01/11 06:19:56;;;;;;;48.60;17.55;;;;;;;-3.70;100.00;102573.47;5054897;28;20431;-80
2024/01/11 06:22:24;;;;;;;40.33;15.98;;;;;;;-3.72;100.00;102568.28;5055165;28;20438;-80
2024/01/11 06:24:52;;;;;;;41.80;16.27;;;;;;;-3.77;100.00;102555.41;5039859;28;20424;-80
2024/01/11 06:27:25;;;;;;;43.03;15.93;;;;;;;-3.73;100.00;102579.06;5057460;28;20428;-80
2024/01/11 06:29:59;;;;;;;46.67;14.82;;;;;;;-3.64;100.00;102573.75;5053736;28;20456;-80
2024/01/11 06:32:28;;;;;;;39.40;15.30;;;;;;;-3.78;100.00;102572.34;5054676;28;20457;-80
2024/01/11 06:34:57;;;;;;;41.95;13.57;;;;;;;-3.73;100.00;102576.41;5055050;28;20423;-80
2024/01/11 06:37:25;;;;;;;45.72;14.13;;;;;;;-3.80;100.00;102574.31;5038641;28;20431;-80
2024/01/11 06:39:58;;;;;;;38.38;13.20;;;;;;;-3.81;100.00;102577.09;5051830;28;20419;-80
2024/01/11 06:42:27;;;;;;;35.30;13.48;;;;;;;-3.86;100.00;102571.34;5066529;28;20446;-80
2024/01/11 06:45:01;;;;;;;38.70;13.57;;;;;;;-3.85;100.00;102575.69;5038916;28;20433;-80
2024/01/11 06:47:31;;;;;;;37.10;13.05;;;;;;;-3.93;100.00;102579.88;5054338;28;20419;-80
2024/01/11 06:50:06;;;;;;;42.17;12.90;;;;;;;-4.00;100.00;102588.53;5040211;28;20436;-80
2024/01/11 06:52:39;;;;;;;37.67;13.73;;;;;;;-3.93;100.00;102581.69;5053729;28;20434;-81
2024/01/11 06:55:13;;;;;;;42.55;13.90;;;;;;;-3.85;100.00;102575.69;5054405;28;20431;-80
2024/01/11 06:57:47;;;;;;;36.30;12.98;;;;;;;-3.95;100.00;102576.53;5036551;28;20438;-80
2024/01/11 07:00:22;;;;;;;34.53;12.60;;;;;;;-3.84;100.00;102580.88;5055181;28;20415;-80
2024/01/11 07:02:53;;;;;;;36.20;12.45;;;;;;;-3.85;100.00;102573.88;5038439;28;20426;-80
2024/01/11 07:05:21;;;;;;;36.63;13.13;;;;;;;-3.86;100.00;102580.16;5036883;28;20440;-80
2024/01/11 07:07:56;;;;;;;43.40;13.18;;;;;;;-3.64;100.00;102591.56;5053057;28;20788;-80
2024/01/11 07:10:24;;;;;;;36.85;12.65;;;;;;;-3.74;100.00;102603.97;5055288;28;20417;-80
2024/01/11 07:12:57;;;;;;;36.10;12.88;;;;;;;-3.83;100.00;102603.81;5055976;28;20432;-80
2024/01/11 07:15:25;;;;;;;35.35;12.90;;;;;;;-3.80;100.00;102610.69;5045068;28;20769;-80
2024/01/11 07:18:00;;;;;;;35.77;13.03;;;;;;;-3.79;100.00;102618.53;5044728;28;20442;-80
2024/01/11 07:20:33;;;;;;;37.55;13.43;;;;;;;-3.72;100.00;102608.19;5043500;28;20440;-80
2024/01/11 07:23:01;;;;;;;46.03;12.77;;;;;;;-3.65;100.00;102603.16;5046115;28;20435;-80
2024/01/11 07:25:35;;;;;;;34.75;13.02;;;;;;;-3.73;100.00;102600.34;5058295;28;20440;-80
2024/01/11 07:28:03;;;;;;;37.95;13.23;;;;;;;-3.80;100.00;102595.59;5045035;28;20436;-80
2024/01/11 07:30:31;;;;;;;41.85;14.45;;;;;;;-3.80;100.00;102603.56;5055498;28;20435;-80
2024/01/11 07:33:01;;;;;;;35.00;12.98;;;;;;;-3.80;100.00;102597.41;5052346;28;20436;-80
2024/01/11 07:35:34;;;;;;;35.22;13.50;;;;;;;-3.65;100.00;102604.00;5044871;28;20435;-80
2024/01/11 07:38:03;;;;;;;57.15;12.90;;;;;;;-3.55;100.00;102592.53;5047802;28;20436;-80
2024/01/11 07:40:36;;;;;;;33.45;13.77;;;;;;;-3.56;100.00;102604.16;5056543;28;20436;-84
2024/01/11 07:43:09;;;;;;;33.75;13.48;;;;;;;-3.63;100.00;102595.91;5074256;28;20903;-79
2024/01/11 07:45:43;;;;;;;28.65;12.55;;;;;;;-3.57;100.00;102599.81;5043957;28;20425;-79
2024/01/11 07:48:18;;;;;;;36.65;13.93;;;;;;;-3.63;100.00;102607.38;5056035;28;20431;-81
2024/01/11 07:50:51;;;;;;;31.02;12.98;;;;;;;-3.59;100.00;102603.47;5036945;28;20431;-79
2024/01/11 07:53:19;;;;;;;33.90;13.27;;;;;;;-3.59;100.00;102599.94;5071053;28;20435;-79
2024/01/11 07:55:52;;;;;;;37.80;12.32;;;;;;;-3.49;100.00;102586.66;5058347;28;20427;-78
2024/01/11 07:58:26;;;;;;;28.92;11.32;;;;;;;-3.50;100.00;102584.97;5057911;28;20495;-78
2024/01/11 08:00:59;;;;;;;26.45;11.05;;;;;;;-3.48;100.00;102601.63;5051806;28;20431;-79
2024/01/11 08:03:28;;;;;;;31.00;11.60;;;;;;;-3.46;100.00;102599.69;5056276;28;20415;-78
2024/01/11 08:06:02;;;;;;;30.83;10.90;;;;;;;-3.45;100.00;102596.88;5033365;28;20454;-79
2024/01/11 08:08:36;;;;;;;28.13;11.13;;;;;;;-3.38;100.00;102596.31;5052154;28;20427;-78
2024/01/11 08:11:04;;;;;;;27.13;9.77;;;;;;;-3.35;100.00;102596.88;5036529;28;20423;-79
2024/01/11 08:13:37;;;;;;;25.35;10.43;;;;;;;-3.35;100.00;102594.22;5039218;28;20435;-78
2024/01/11 08:16:16;;;;;;;26.90;10.68;;;;;;;-3.23;100.00;102586.94;5055742;28;20436;-79
2024/01/11 08:18:51;;;;;;;23.90;9.45;;;;;;;-3.23;100.00;102580.75;5040501;28;20436;-79
2024/01/11 08:21:19;;;;;;;22.38;9.10;;;;;;;-3.18;100.00;102591.84;5036597;28;20438;-79
2024/01/11 08:23:52;;;;;;;23.25;8.55;;;;;;;-3.23;100.00;102584.28;5056026;28;20431;-77
2024/01/11 08:26:21;;;;;;;18.13;7.72;;;;;;;-3.22;100.00;102582.44;5031934;28;22721;-79
2024/01/11 08:28:50;;;;;;;22.17;8.63;;;;;;;-3.11;100.00;102582.28;5034157;28;20433;-78
2024/01/11 08:31:18;;;;;;;20.20;7.95;;;;;;;-3.04;100.00;102586.06;5049659;28;20424;-78
2024/01/11 08:33:46;;;;;;;20.92;7.88;;;;;;;-3.04;100.00;102585.22;5009624;28;20429;-79
2024/01/11 08:36:16;;;;;;;22.10;8.32;;;;;;;-3.00;100.00;102586.63;5028101;28;20435;-79
2024/01/11 08:38:49;;;;;;;20.77;8.27;;;;;;;-2.83;100.00;102571.72;5031694;28;20427;-79
2024/01/11 08:41:17;;;;;;;20.85;8.55;;;;;;;-2.85;100.00;102565.72;5033425;28;20431;-79
2024/01/11 08:43:51;;;;;;;22.10;9.05;;;;;;;-2.87;100.00;102579.19;5015891;28;20442;-79
2024/01/11 08:46:25;;;;;;;19.15;8.52;;;;;;;-2.79;100.00;102581.09;5026656;28;20431;-79
2024/01/11 08:48:58;;;;;;;22.08;8.65;;;;;;;-2.81;100.00;102573.25;5027354;28;20427;-79
2024/01/11 08:51:33;;;;;;;19.40;8.07;;;;;;;-2.79;100.00;102571.31;5014025;28;20435;-79
2024/01/11 08:54:09;;;;;;;21.45;8.15;;;;;;;-2.77;100.00;102564.00;5019097;28;20439;-79
2024/01/11 08:56:42;;;;;;;20.35;8.48;;;;;;;-2.75;100.00;102561.19;5037525;28;20431;-79
2024/01/11 08:59:15;;;;;;;22.25;8.07;;;;;;;-2.72;100.00;102554.72;5033092;28;20431;-78
2024/01/11 09:01:49;;;;;;;18.50;7.72;;;;;;;-2.68;100.00;102548.97;5021093;28;20427;-78
2024/01/11 09:04:17;;;;;;;19.85;8.73;;;;;;;-2.52;100.00;102550.16;5044726;28;20439;-79
2024/01/11 09:06:52;;;;;;;17.23;7.85;;;;;;;-2.56;100.00;102536.28;5013472;28;20501;-79
2024/01/11 09:09:25;;;;;;;17.88;7.88;;;;;;;-2.43;100.00;102544.78;5036221;28;20435;-79
2024/01/11 09:11:58;;;;;;;19.42;7.22;;;;;;;-2.47;100.00;102545.22;5022002;28;20432;-79
2024/01/11 09:14:27;;;;;;;17.50;7.53;;;;;;;-2.38;100.00;102539.00;5022642;28;21302;-78
2024/01/11 09:16:55;;;;;;;16.90;7.20;;;;;;;-2.45;100.00;102529.94;5020158;28;20439;-78
2024/01/11 09:19:30;;;;;;;18.83;7.72;;;;;;;-2.31;100.00;102541.94;5027844;28;20427;-79
2024/01/11 09:21:59;;;;;;;18.25;7.75;;;;;;;-2.46;100.00;102539.75;5031886;28;20421;-79
2024/01/11 09:24:33;;;;;;;16.88;7.15;;;;;;;-2.36;100.00;102530.84;5010606;28;20453;-79
2024/01/11 09:27:06;;;;;;;16.27;6.80;;;;;;;-2.16;100.00;102534.28;5038363;28;20437;-78
2024/01/11 09:29:43;;;;;;;14.80;6.43;;;;;;;-2.14;100.00;102535.81;5029738;28;20434;-79
2024/01/11 09:32:12;;;;;;;20.38;8.20;;;;;;;-2.17;100.00;102545.91;5026247;28;21162;-79
2024/01/11 09:34:45;;;;;;;17.95;6.53;;;;;;;-2.08;100.00;102547.69;4988676;28;20446;-79
2024/01/11 09:37:20;;;;;;;16.27;7.00;;;;;;;-2.07;100.00;102555.56;5006128;28;20431;-79
2024/01/11 09:39:48;;;;;;;18.23;6.85;;;;;;;-2.06;100.00;102564.38;5032323;28;20424;-78
2024/01/11 09:42:21;;;;;;;17.67;6.40;;;;;;;-1.97;100.00;102550.16;5026918;28;20423;-78
2024/01/11 09:44:50;;;;;;;16.55;6.25;;;;;;;-1.77;100.00;102537.53;5034128;28;20426;-78
2024/01/11 09:47:25;;;;;;;15.73;6.13;;;;;;;-1.67;100.00;102532.13;5019730;28;21190;-79
2024/01/11 09:49:56;;;;;;;15.32;6.10;;;;;;;-1.64;100.00;102530.94;5012598;28;20435;-79
2024/01/11 09:52:31;;;;;;;14.40;6.13;;;;;;;-1.76;100.00;102522.34;5017081;28;20443;-78
2024/01/11 09:55:06;;;;;;;15.00;6.30;;;;;;;-1.49;100.00;102531.25;5024119;28;20442;-79
2024/01/11 09:57:39;;;;;;;15.05;6.40;;;;;;;-1.59;100.00;102536.66;5017688;28;20419;-79
2024/01/11 10:00:18;;;;;;;15.48;6.28;;;;;;;-1.56;100.00;102547.03;5017939;28;20420;-78
2024/01/11 10:02:47;;;;;;;16.05;6.53;;;;;;;-1.55;100.00;102554.06;5028958;28;20438;-79
2024/01/11 10:05:20;;;;;;;13.40;5.75;;;;;;;-1.56;100.00;102539.03;5011044;28;20432;-79
2024/01/11 10:07:50;;;;;;;15.00;6.00;;;;;;;-1.56;100.00;102547.03;5018037;28;20427;-78
2024/01/11 10:10:24;;;;;;;15.48;6.00;;;;;;;-1.47;100.00;102532.78;5016512;28;20436;-78
2024/01/11 10:12:52;;;;;;;12.50;5.18;;;;;;;-1.49;100.00;102536.59;5031160;28;20420;-79
2024/01/11 10:15:25;;;;;;;12.85;5.45;;;;;;;-1.48;100.00;102539.09;5030599;28;20423;-79
2024/01/11 10:17:54;;;;;;;13.38;5.40;;;;;;;-1.56;100.00;102525.66;5019491;28;20427;-78
2024/01/11 10:20:29;;;;;;;13.00;5.20;;;;;;;-1.46;100.00;102537.13;5030979;28;20434;-79
2024/01/11 10:23:04;;;;;;;13.10;5.13;;;;;;;-1.43;100.00;102535.97;5028182;28;20421;-78
2024/01/11 10:25:33;;;;;;;12.88;5.07;;;;;;;-1.39;100.00;102529.34;5028953;28;21831;-78
2024/01/11 10:28:08;;;;;;;13.63;5.17;;;;;;;-1.27;100.00;102536.13;5031568;28;20988;-78
2024/01/11 10:30:41;;;;;;;14.07;5.47;;;;;;;-1.13;100.00;102540.06;5030972;28;20952;-78
2024/01/11 10:33:15;;;;;;;14.00;5.63;;;;;;;-1.09;100.00;102543.25;5014564;28;20439;-78
2024/01/11 10:35:49;;;;;;;16.33;6.30;;;;;;;-1.34;100.00;102532.41;4983761;28;20435;-78
2024/01/11 10:38:19;;;;;;;14.95;5.82;;;;;;;-1.19;100.00;102543.34;5020003;28;20432;-78
2024/01/11 10:40:55;;;;;;;13.77;5.28;;;;;;;-1.10;100.00;102544.25;5015227;28;20431;-78
2024/01/11 10:43:32;;;;;;;17.75;5.80;;;;;;;-1.24;100.00;102557.16;5013528;28;20514;-77
2024/01/11 10:46:04;;;;;;;15.52;5.78;;;;;;;-1.17;100.00;102573.44;4997785;28;20443;-78
2024/01/11 10:48:39;;;;;;;19.30;6.78;;;;;;;-1.10;100.00;102560.28;5034373;28;20428;-78
2024/01/11 10:51:18;;;;;;;16.17;5.90;;;;;;;-1.19;100.00;102556.69;5016413;28;20510;-78
2024/01/11 10:53:50;;;;;;;18.15;6.78;;;;;;;-1.16;100.00;102553.75;5011823;28;20520;-78
2024/01/11 10:56:24;;;;;;;17.42;6.35;;;;;;;-1.17;100.00;102544.03;5017375;28;20450;-78
2024/01/11 10:58:58;;;;;;;16.33;6.07;;;;;;;-1.12;100.00;102543.56;5041038;28;20895;-79
2024/01/11 11:01:32;;;;;;;17.40;6.43;;;;;;;-1.17;100.00;102530.69;5022150;28;20442;-78
2024/01/11 11:04:07;;;;;;;19.13;6.53;;;;;;;-1.08;100.00;102527.06;5048861;28;20419;-78
2024/01/11 11:06:42;;;;;;;18.05;6.13;;;;;;;-1.03;100.00;102521.25;5041335;28;21268;-78
2024/01/11 11:09:18;;;;;;;18.23;6.63;;;;;;;-1.11;100.00;102515.84;5043216;28;20419;-79
2024/01/11 11:11:54;;;;;;;21.85;8.20;;;;;;;-0.97;100.00;102511.75;5047160;28;20430;-78
2024/01/11 11:14:35;;;;;;;16.63;6.80;;;;;;;-1.01;100.00;102516.56;5044772;28;20439;-78
2024/01/11 11:17:09;;;;;;;20.30;7.47;;;;;;;-0.92;100.00;102507.63;5042955;28;21517;-78
2024/01/11 11:19:37;;;;;;;20.23;8.25;;;;;;;-0.92;100.00;102499.59;5024594;28;20855;-79
2024/01/11 11:22:14;;;;;;;18.90;8.10;;;;;;;-0.84;100.00;102509.50;5030420;28;20436;-78
2024/01/11 11:24:49;;;;;;;17.48;6.28;;;;;;;-0.80;100.00;102518.03;5048346;28;20427;-78